Time;durP1;ratioP1;P1;durP2;ratioP2;P2;SDS_P1;SDS_P2;PMS_P1;PMS_P2;Temp;Humidity;BMP_temperature;BMP_pressure;BME280_temperature;BME280_humidity;BME280_pressure;Samples;Min_cycle;Max_cycle;Signal;HPM_P1;HPM_P2
2022/04/02 00:00:06;;;;;;;3.77;3.33;;;;;;;1.39;100.00;94751.09;5047543;28;20202;-85
2022/04/02 00:02:39;;;;;;;3.47;3.17;;;;;;;1.44;100.00;94746.78;5023374;28;20248;-85
2022/04/02 00:05:06;;;;;;;3.43;3.03;;;;;;;1.46;100.00;94743.91;5009534;28;20228;-84
2022/04/02 00:07:35;;;;;;;3.83;3.40;;;;;;;1.48;100.00;94740.00;5039876;28;20297;-84
2022/04/02 00:10:05;;;;;;;3.73;3.30;;;;;;;1.50;100.00;94745.13;5043902;28;20215;-85
2022/04/02 00:12:32;;;;;;;3.43;3.13;;;;;;;1.50;100.00;94739.78;5007563;28;20216;-85
2022/04/02 00:14:59;;;;;;;3.43;3.13;;;;;;;1.47;100.00;94743.69;5010489;28;20422;-84
2022/04/02 00:17:26;;;;;;;3.40;3.00;;;;;;;1.51;100.00;94736.94;5008996;28;20214;-85
2022/04/02 00:19:55;;;;;;;3.70;3.03;;;;;;;1.55;100.00;94731.97;5021089;28;20206;-85
2022/04/02 00:22:22;;;;;;;3.20;2.80;;;;;;;1.58;100.00;94742.19;5042664;28;20213;-85
2022/04/02 00:24:50;;;;;;;3.47;3.10;;;;;;;1.64;100.00;94732.53;5041242;28;20229;-85
2022/04/02 00:27:17;;;;;;;3.40;2.80;;;;;;;1.65;100.00;94737.66;5027198;28;20207;-85
2022/04/02 00:29:45;;;;;;;3.40;3.07;;;;;;;1.55;100.00;94723.19;5006825;28;20212;-85
2022/04/02 00:32:12;;;;;;;3.50;3.20;;;;;;;1.56;100.00;94732.78;5012197;28;20215;-85
2022/04/02 00:34:40;;;;;;;3.67;3.37;;;;;;;1.54;100.00;94733.00;5009231;28;20316;-85
2022/04/02 00:37:07;;;;;;;5.87;3.27;;;;;;;1.55;100.00;94725.84;5045068;28;20226;-85
2022/04/02 00:39:34;;;;;;;3.47;3.17;;;;;;;1.59;100.00;94732.38;5037068;28;20233;-85
2022/04/02 00:42:03;;;;;;;3.33;3.03;;;;;;;1.57;100.00;94735.25;5028070;28;20297;-85
2022/04/02 00:44:30;;;;;;;6.23;3.20;;;;;;;1.61;100.00;94735.66;5027825;28;20227;-85
2022/04/02 00:46:58;;;;;;;3.83;3.27;;;;;;;1.62;100.00;94731.94;5051778;28;20201;-85
2022/04/02 00:49:25;;;;;;;3.50;3.20;;;;;;;1.64;100.00;94736.03;5012738;28;20216;-85
2022/04/02 00:51:53;;;;;;;3.33;3.00;;;;;;;1.64;100.00;94732.53;5029515;28;20257;-85
2022/04/02 00:54:21;;;;;;;3.93;3.20;;;;;;;1.64;100.00;94729.88;5045737;28;20225;-85
2022/04/02 00:56:49;;;;;;;3.67;3.13;;;;;;;1.69;100.00;94732.72;5010437;28;20235;-85
2022/04/02 00:59:18;;;;;;;3.93;3.20;;;;;;;1.70;100.00;94731.69;5044562;28;20306;-85
2022/04/02 01:01:45;;;;;;;3.80;3.17;;;;;;;1.58;100.00;94723.59;5028421;28;20238;-85
2022/04/02 01:04:14;;;;;;;4.47;3.50;;;;;;;1.61;100.00;94723.16;5026789;28;20211;-85
2022/04/02 01:06:45;;;;;;;4.07;3.53;;;;;;;1.62;100.00;94723.94;5030683;28;20219;-85
2022/04/02 01:09:22;;;;;;;4.97;3.83;;;;;;;1.68;100.00;94737.22;5045836;28;20219;-85
2022/04/02 01:11:54;;;;;;;5.63;3.93;;;;;;;1.70;100.00;94737.03;5042359;28;20208;-85
2022/04/02 01:14:24;;;;;;;5.60;4.07;;;;;;;1.73;100.00;94728.59;5044607;28;20225;-85
2022/04/02 01:16:55;;;;;;;4.20;3.60;;;;;;;1.77;100.00;94743.94;5045026;28;20220;-86
2022/04/02 01:19:25;;;;;;;4.03;3.43;;;;;;;1.72;100.00;94737.59;5047329;28;20272;-86
2022/04/02 01:22:07;;;;;;;4.40;3.70;;;;;;;1.76;100.00;94744.13;5027460;28;20395;-85
2022/04/02 01:24:45;;;;;;;3.97;3.57;;;;;;;1.76;100.00;94738.81;5045668;28;20249;-85
2022/04/02 01:27:13;;;;;;;5.17;4.13;;;;;;;1.72;100.00;94742.94;5007805;28;20211;-85
2022/04/02 01:29:41;;;;;;;4.20;3.63;;;;;;;1.73;100.00;94734.72;5011807;28;20223;-85
2022/04/02 01:32:12;;;;;;;4.30;3.87;;;;;;;1.76;100.00;94738.81;5033942;28;20262;-86
2022/04/02 01:34:41;;;;;;;3.83;3.47;;;;;;;1.76;100.00;94736.16;5027982;28;20233;-86
2022/04/02 01:37:17;;;;;;;4.67;4.17;;;;;;;1.77;100.00;94735.13;5025936;28;20206;-85
2022/04/02 01:39:49;;;;;;;4.90;4.10;;;;;;;1.78;100.00;94728.78;5045027;28;20316;-85
2022/04/02 01:42:24;;;;;;;4.47;3.87;;;;;;;1.82;100.00;94733.44;5025836;28;20236;-85
2022/04/02 01:45:03;;;;;;;5.20;4.70;;;;;;;1.86;100.00;94731.19;5043694;28;20213;-85
2022/04/02 01:47:38;;;;;;;4.60;4.10;;;;;;;1.81;100.00;94723.00;5054104;28;20215;-86
2022/04/02 01:50:07;;;;;;;4.97;4.17;;;;;;;1.79;100.00;94725.06;5032365;28;20209;-85
2022/04/02 01:52:40;;;;;;;4.90;4.00;;;;;;;1.76;100.00;94715.69;5010052;28;20306;-86
2022/04/02 01:55:13;;;;;;;4.80;4.10;;;;;;;1.73;100.00;94724.09;5027368;28;20324;-85
2022/04/02 01:57:44;;;;;;;5.17;4.13;;;;;;;1.70;100.00;94715.75;5026541;28;20206;-86
2022/04/02 02:00:16;;;;;;;4.10;3.70;;;;;;;1.74;100.00;94714.25;5017997;28;20357;-85
2022/04/02 02:02:47;;;;;;;4.63;3.90;;;;;;;1.75;100.00;94715.91;5026243;28;20256;-86
2022/04/02 02:05:14;;;;;;;4.53;3.73;;;;;;;1.81;100.00;94723.00;5003615;28;20478;-85
2022/04/02 02:07:51;;;;;;;4.30;3.53;;;;;;;1.76;100.00;94713.03;4996930;28;20208;-85
2022/04/02 02:10:28;;;;;;;4.63;3.93;;;;;;;1.84;100.00;94719.94;5014972;28;20306;-85
2022/04/02 02:13:06;;;;;;;4.23;3.60;;;;;;;1.77;100.00;94719.16;4997543;28;20229;-86
2022/04/02 02:15:39;;;;;;;4.77;4.03;;;;;;;1.83;100.00;94726.28;5015372;28;20497;-85
2022/04/02 02:18:07;;;;;;;4.63;3.67;;;;;;;1.79;100.00;94717.91;5031223;28;20224;-85
2022/04/02 02:20:34;;;;;;;4.43;3.73;;;;;;;1.84;100.00;94715.44;5018089;28;20213;-85
2022/04/02 02:23:03;;;;;;;5.40;4.00;;;;;;;1.79;100.00;94717.09;5008377;28;20213;-86
2022/04/02 02:25:30;;;;;;;4.83;4.30;;;;;;;1.87;100.00;94724.84;5013617;28;20203;-86
2022/04/02 02:27:57;;;;;;;5.63;3.80;;;;;;;1.74;100.00;94719.59;5003064;28;20248;-86
2022/04/02 02:30:26;;;;;;;4.77;4.00;;;;;;;1.74;100.00;94723.06;5032109;28;20205;-85
2022/04/02 02:35:52;;;;;;;4.77;4.07;;;;;;;1.62;100.00;94726.63;4970629;28;21764;-86
2022/04/02 02:38:32;;;;;;;5.30;4.50;;;;;;;1.53;100.00;94721.56;4994780;28;20639;-86
2022/04/02 02:41:17;;;;;;;5.13;4.00;;;;;;;1.56;100.00;94727.47;5014346;28;20210;-86
2022/04/02 02:43:49;;;;;;;5.10;4.43;;;;;;;1.53;100.00;94728.75;4994045;28;20216;-85
2022/04/02 02:46:28;;;;;;;4.00;3.60;;;;;;;1.50;100.00;94724.66;5012625;28;20301;-86
2022/04/02 02:49:02;;;;;;;4.33;3.93;;;;;;;1.49;100.00;94725.69;4999207;28;20287;-85
2022/04/02 02:51:30;;;;;;;4.80;4.00;;;;;;;1.46;100.00;94726.09;5014362;28;20210;-86
2022/04/02 02:53:58;;;;;;;4.47;3.67;;;;;;;1.41;100.00;94725.94;4996988;28;20242;-85
2022/04/02 02:56:25;;;;;;;4.07;3.40;;;;;;;1.42;100.00;94737.38;4999555;28;20217;-85
2022/04/02 02:58:53;;;;;;;4.17;3.53;;;;;;;1.40;100.00;94734.13;5012580;28;20213;-85
2022/04/02 03:01:23;;;;;;;4.27;3.73;;;;;;;1.39;100.00;94730.66;5026580;28;20237;-85
2022/04/02 03:03:53;;;;;;;4.27;3.33;;;;;;;1.33;100.00;94723.53;5034267;28;20198;-85
2022/04/02 03:06:23;;;;;;;4.30;3.70;;;;;;;1.38;100.00;94736.16;4994445;28;20204;-85
2022/04/02 03:08:51;;;;;;;4.60;3.60;;;;;;;1.36;100.00;94736.38;4996864;28;20213;-85
2022/04/02 03:11:20;;;;;;;4.23;3.13;;;;;;;1.31;100.00;94724.75;5014568;28;20206;-85
2022/04/02 03:13:47;;;;;;;6.83;3.63;;;;;;;1.29;100.00;94734.78;5011204;28;20284;-85
2022/04/02 03:16:15;;;;;;;5.07;3.70;;;;;;;1.33;100.00;94739.47;4995962;28;20198;-84
2022/04/02 03:18:49;;;;;;;5.00;3.90;;;;;;;1.25;100.00;94737.06;5014528;28;20217;-85
2022/04/02 03:21:20;;;;;;;4.67;3.73;;;;;;;1.31;100.00;94733.56;5007516;28;20214;-85
2022/04/02 03:23:48;;;;;;;5.37;4.20;;;;;;;1.27;100.00;94740.34;5038122;28;20231;-84
2022/04/02 03:26:20;;;;;;;5.13;4.03;;;;;;;1.31;100.00;94741.53;4996350;28;20214;-85
2022/04/02 03:28:47;;;;;;;6.97;3.83;;;;;;;1.28;100.00;94733.97;5029844;28;20310;-85
2022/04/02 03:31:18;;;;;;;4.47;3.87;;;;;;;1.28;100.00;94735.81;4998845;28;20328;-84
2022/04/02 03:33:48;;;;;;;4.80;3.90;;;;;;;1.34;100.00;94732.31;4994582;28;20212;-84
2022/04/02 03:36:15;;;;;;;4.27;3.63;;;;;;;1.43;100.00;94733.69;4959600;28;20195;-84
2022/04/02 03:38:43;;;;;;;4.27;3.60;;;;;;;1.38;100.00;94736.97;5018567;28;20232;-84
2022/04/02 03:41:14;;;;;;;4.20;3.53;;;;;;;1.40;100.00;94729.63;5007633;28;20287;-84
2022/04/02 03:43:46;;;;;;;4.57;3.73;;;;;;;1.41;100.00;94743.72;4998645;28;20221;-84
2022/04/02 03:49:01;;;;;;;4.13;3.27;;;;;;;1.40;100.00;94748.22;5015112;28;20283;-84
2022/04/02 03:51:30;;;;;;;3.77;3.13;;;;;;;1.39;100.00;94748.44;5029865;28;20262;-84
2022/04/02 03:53:58;;;;;;;4.00;3.10;;;;;;;1.32;100.00;94751.13;4958869;28;20273;-84
2022/04/02 03:56:26;;;;;;;3.23;2.80;;;;;;;1.32;100.00;94751.13;4994197;28;20209;-84
2022/04/02 03:58:58;;;;;;;4.97;2.80;;;;;;;1.34;100.00;94740.28;4993302;28;20238;-84
2022/04/02 04:01:26;;;;;;;3.07;2.50;;;;;;;1.37;100.00;94756.63;5007203;28;20247;-84
2022/04/02 04:03:53;;;;;;;2.87;2.57;;;;;;;1.32;100.00;94763.63;5043669;28;20202;-85
2022/04/02 04:06:21;;;;;;;2.67;2.47;;;;;;;1.36;100.00;94776.25;5026212;28;20216;-84
2022/04/02 04:08:49;;;;;;;2.50;2.23;;;;;;;1.36;100.00;94768.28;5027236;28;20215;-84
2022/04/02 04:11:18;;;;;;;2.93;2.53;;;;;;;1.34;100.00;94773.03;5010135;28;20434;-84
2022/04/02 04:13:50;;;;;;;2.90;2.50;;;;;;;1.32;100.00;94764.44;5026526;28;20266;-84
2022/04/02 04:16:19;;;;;;;5.47;2.53;;;;;;;1.38;100.00;94773.41;5044782;28;20388;-83
2022/04/02 04:18:46;;;;;;;4.17;2.40;;;;;;;1.37;100.00;94777.91;5005656;28;20241;-84
2022/04/02 04:21:14;;;;;;;3.27;2.50;;;;;;;1.39;100.00;94775.03;5026309;28;20219;-85
2022/04/02 04:23:42;;;;;;;3.80;2.60;;;;;;;1.36;100.00;94786.13;5012192;28;20288;-84
2022/04/02 04:26:12;;;;;;;3.40;2.47;;;;;;;1.32;100.00;94785.69;5006613;28;20206;-84
2022/04/02 04:28:41;;;;;;;3.40;2.60;;;;;;;1.30;100.00;94779.78;5012672;28;20213;-85
2022/04/02 04:31:10;;;;;;;3.83;2.77;;;;;;;1.29;100.00;94794.09;5012956;28;20325;-85
2022/04/02 04:33:39;;;;;;;3.67;3.00;;;;;;;1.36;100.00;94792.22;5009686;28;20244;-85
2022/04/02 04:36:07;;;;;;;3.00;2.70;;;;;;;1.39;100.00;94797.13;5028723;28;20284;-84
2022/04/02 04:38:34;;;;;;;3.63;2.77;;;;;;;1.46;100.00;94797.91;5045940;28;20207;-85
2022/04/02 04:41:06;;;;;;;3.97;3.20;;;;;;;1.40;100.00;94801.41;5025277;28;20210;-85
2022/04/02 04:43:35;;;;;;;5.00;3.40;;;;;;;1.35;100.00;94801.25;5026168;28;20204;-87
2022/04/02 04:46:04;;;;;;;3.87;3.03;;;;;;;1.34;100.00;94814.75;5025030;28;20212;-87
2022/04/02 04:48:32;;;;;;;4.43;3.10;;;;;;;1.43;100.00;94811.66;5006629;28;20210;-87
2022/04/02 04:51:02;;;;;;;4.13;3.30;;;;;;;1.37;100.00;94820.44;5011211;28;20208;-88
2022/04/02 04:53:31;;;;;;;4.00;3.17;;;;;;;1.38;100.00;94822.06;5044465;28;20321;-88
2022/04/02 04:55:58;;;;;;;4.53;3.47;;;;;;;1.33;100.00;94818.44;5008683;28;20303;-87
2022/04/02 04:58:27;;;;;;;4.20;3.57;;;;;;;1.28;100.00;94824.34;5009603;28;20325;-85
2022/04/02 05:00:59;;;;;;;5.23;3.97;;;;;;;1.23;100.00;94824.19;5025394;28;20300;-85
2022/04/02 05:03:32;;;;;;;5.67;3.93;;;;;;;1.26;100.00;94826.44;5026033;28;20215;-85
2022/04/02 05:06:02;;;;;;;4.77;3.70;;;;;;;1.34;100.00;94828.88;5026210;28;20297;-85
2022/04/02 05:08:32;;;;;;;4.67;3.67;;;;;;;1.34;100.00;94830.69;5011228;28;20297;-85
2022/04/02 05:11:01;;;;;;;5.10;3.60;;;;;;;1.36;100.00;94834.75;5008590;28;20214;-85
2022/04/02 05:13:35;;;;;;;4.57;3.37;;;;;;;1.21;100.00;94847.50;5046816;28;20206;-85
2022/04/02 05:16:03;;;;;;;4.40;3.37;;;;;;;1.28;100.00;94844.81;5025875;28;20276;-88
2022/04/02 05:18:32;;;;;;;4.53;3.53;;;;;;;1.25;100.00;94837.28;5012735;28;20199;-88
2022/04/02 05:21:02;;;;;;;4.80;3.70;;;;;;;1.20;100.00;94855.69;5026928;28;20212;-87
2022/04/02 05:23:30;;;;;;;5.33;4.20;;;;;;;1.17;100.00;94846.31;5028765;28;20224;-88
2022/04/02 05:25:58;;;;;;;4.93;3.97;;;;;;;1.18;100.00;94853.25;5017766;28;20221;-87
2022/04/02 05:28:31;;;;;;;5.27;4.00;;;;;;;1.13;100.00;94855.69;5015163;28;20210;-88
2022/04/02 05:30:58;;;;;;;4.97;4.10;;;;;;;1.18;100.00;94863.06;5010718;28;20218;-88
2022/04/02 05:33:25;;;;;;;5.57;4.03;;;;;;;1.23;100.00;94864.06;5044960;28;20205;-88
2022/04/02 05:35:52;;;;;;;4.80;3.80;;;;;;;1.22;100.00;94865.09;5044596;28;20276;-87
2022/04/02 05:38:20;;;;;;;4.67;3.80;;;;;;;1.19;100.00;94864.69;5030809;28;20211;-88
2022/04/02 05:40:48;;;;;;;4.77;3.73;;;;;;;1.17;100.00;94874.72;5050094;28;20289;-87
2022/04/02 05:43:15;;;;;;;5.07;3.90;;;;;;;1.17;100.00;94870.22;5010475;28;20213;-87
2022/04/02 05:45:42;;;;;;;4.13;3.37;;;;;;;1.23;100.00;94881.84;5053600;28;20214;-87
2022/04/02 05:48:09;;;;;;;3.70;3.20;;;;;;;1.16;100.00;94873.91;5014291;28;20249;-88
2022/04/02 05:50:37;;;;;;;3.73;3.03;;;;;;;1.16;100.00;94876.56;5044812;28;20323;-87
2022/04/02 05:53:04;;;;;;;3.77;2.93;;;;;;;1.08;100.00;94882.91;5011304;28;20204;-88
2022/04/02 05:55:33;;;;;;;4.70;3.63;;;;;;;1.06;100.00;94884.97;5047410;28;20228;-87
2022/04/02 05:58:00;;;;;;;3.40;3.00;;;;;;;1.22;100.00;94894.34;5044849;28;20213;-87
2022/04/02 06:00:28;;;;;;;5.27;3.53;;;;;;;1.23;100.00;94893.31;5038705;28;20212;-88
2022/04/02 06:02:55;;;;;;;4.50;3.60;;;;;;;1.21;100.00;94900.66;5019160;28;20248;-87
2022/04/02 06:05:23;;;;;;;5.00;3.57;;;;;;;1.26;100.00;94903.53;5028484;28;20735;-88
2022/04/02 06:07:50;;;;;;;4.50;3.70;;;;;;;1.25;100.00;94901.91;5023821;28;20643;-87
2022/04/02 06:10:17;;;;;;;4.23;3.13;;;;;;;1.34;100.00;94905.97;5044620;28;20218;-88
2022/04/02 06:12:47;;;;;;;5.30;3.70;;;;;;;1.30;100.00;94904.75;5017091;28;20290;-87
2022/04/02 06:15:15;;;;;;;4.03;3.63;;;;;;;1.28;100.00;94904.13;5026808;28;20627;-88
2022/04/02 06:17:42;;;;;;;3.73;3.33;;;;;;;1.32;100.00;94912.50;5010464;28;20214;-88
2022/04/02 06:20:10;;;;;;;4.50;3.63;;;;;;;1.34;100.00;94919.28;5028085;28;20214;-88
2022/04/02 06:22:37;;;;;;;3.77;3.10;;;;;;;1.32;100.00;94918.66;5008770;28;20199;-88
2022/04/02 06:25:05;;;;;;;4.27;3.33;;;;;;;1.34;100.00;94911.28;5027634;28;20229;-88
2022/04/02 06:27:32;;;;;;;3.80;3.40;;;;;;;1.41;100.00;94927.22;5017965;28;20257;-88
2022/04/02 06:30:00;;;;;;;4.07;3.30;;;;;;;1.38;100.00;94930.28;5009476;28;20216;-88
2022/04/02 06:32:27;;;;;;;5.00;3.50;;;;;;;1.40;100.00;94926.41;5011049;28;20209;-88
2022/04/02 06:34:55;;;;;;;3.50;3.20;;;;;;;1.48;100.00;94925.34;5025506;28;20218;-88
2022/04/02 06:37:22;;;;;;;6.43;3.40;;;;;;;1.45;100.00;94936.41;5024625;28;20215;-89
2022/04/02 06:39:49;;;;;;;4.43;3.20;;;;;;;1.51;100.00;94939.06;5044263;28;20269;-88
2022/04/02 06:42:16;;;;;;;3.87;3.33;;;;;;;1.46;100.00;94935.38;5023999;28;20206;-88
2022/04/02 06:44:50;;;;;;;4.43;3.43;;;;;;;1.56;100.00;94941.09;5018680;28;20207;-88
2022/04/02 06:47:19;;;;;;;4.07;3.47;;;;;;;1.56;100.00;94951.72;5061137;28;20240;-88
2022/04/02 06:49:46;;;;;;;6.10;4.10;;;;;;;1.58;100.00;94944.38;5022537;28;20204;-89
2022/04/02 06:52:14;;;;;;;9.00;4.80;;;;;;;1.60;100.00;94946.81;5025134;28;20290;-88
2022/04/02 06:54:41;;;;;;;5.53;3.80;;;;;;;1.57;100.00;94952.56;5027033;28;20216;-88
2022/04/02 06:57:08;;;;;;;3.70;3.10;;;;;;;1.55;100.00;94959.91;5044045;28;20203;-88
2022/04/02 06:59:35;;;;;;;3.47;3.10;;;;;;;1.51;100.00;94944.41;5041346;28;20271;-89
2022/04/02 07:02:03;;;;;;;3.33;2.87;;;;;;;1.56;100.00;94961.56;5048747;28;20253;-88
2022/04/02 07:04:32;;;;;;;3.60;3.17;;;;;;;1.58;100.00;94955.00;5018102;28;20206;-89
2022/04/02 07:06:59;;;;;;;4.03;3.60;;;;;;;1.66;100.00;94961.94;5048353;28;20295;-89
2022/04/02 07:09:26;;;;;;;3.43;3.13;;;;;;;1.70;100.00;94971.94;5056272;28;20258;-88
2022/04/02 07:11:53;;;;;;;3.83;3.40;;;;;;;1.69;100.00;94983.63;5017275;28;20239;-88
2022/04/02 07:14:22;;;;;;;3.27;2.97;;;;;;;1.66;100.00;94985.88;5027632;28;20659;-89
2022/04/02 07:16:50;;;;;;;3.77;3.23;;;;;;;1.59;100.00;94977.94;4999855;28;20231;-89
2022/04/02 07:19:21;;;;;;;4.30;3.03;;;;;;;1.57;100.00;94993.28;5022896;28;20209;-89
2022/04/02 07:21:52;;;;;;;3.47;3.07;;;;;;;1.57;100.00;94979.16;5035216;28;20198;-89
2022/04/02 07:24:20;;;;;;;4.73;3.50;;;;;;;1.63;100.00;94995.09;5013223;28;20223;-89
2022/04/02 07:26:50;;;;;;;6.77;4.10;;;;;;;1.74;100.00;94997.13;5049284;28;20216;-88
2022/04/02 07:29:17;;;;;;;6.53;4.60;;;;;;;1.65;100.00;95000.22;5029303;28;20228;-88
2022/04/02 07:31:45;;;;;;;5.20;3.70;;;;;;;1.70;100.00;94998.56;5015990;28;20203;-89
2022/04/02 07:34:13;;;;;;;6.77;4.50;;;;;;;1.72;100.00;95006.34;4996580;28;20214;-89
2022/04/02 07:36:49;;;;;;;5.73;3.97;;;;;;;1.85;100.00;95014.31;5051693;28;20240;-88
2022/04/02 07:39:23;;;;;;;4.70;3.10;;;;;;;1.84;100.00;95015.31;5009468;28;20216;-89
2022/04/02 07:42:02;;;;;;;3.67;3.07;;;;;;;1.76;100.00;95021.69;5063452;28;20210;-87
2022/04/02 07:44:32;;;;;;;3.43;2.93;;;;;;;1.77;100.00;95018.00;5051089;28;20224;-89
2022/04/02 07:47:00;;;;;;;3.20;2.90;;;;;;;1.83;100.00;95027.00;5006594;28;20200;-87
2022/04/02 07:49:29;;;;;;;3.63;2.80;;;;;;;1.81;100.00;95021.06;5029064;28;20274;-88
2022/04/02 07:51:57;;;;;;;4.77;3.23;;;;;;;1.94;100.00;95028.19;5021753;28;20203;-89
2022/04/02 07:54:28;;;;;;;3.30;3.00;;;;;;;1.93;100.00;95035.38;5054319;28;20224;-88
2022/04/02 07:57:03;;;;;;;4.13;3.10;;;;;;;1.93;100.00;95026.56;5047440;28;20235;-89
2022/04/02 07:59:40;;;;;;;3.47;2.90;;;;;;;1.93;100.00;95032.69;5052390;28;20206;-88
2022/04/02 08:02:36;;;;;;;4.50;3.17;;;;;;;2.03;100.00;95043.75;5033592;28;20238;-88
2022/04/02 08:05:00;;;;;;;3.10;2.80;;;;;;;2.17;100.00;95048.00;5024296;28;20209;-88
2022/04/02 08:07:30;;;;;;;3.30;2.90;;;;;;;2.29;100.00;95053.50;5017130;28;20274;-87
2022/04/02 08:10:01;;;;;;;9.33;3.17;;;;;;;2.23;100.00;95054.31;5053631;28;20212;-87
2022/04/02 08:12:29;;;;;;;4.10;3.60;;;;;;;2.27;100.00;95048.38;5042118;28;20213;-88
2022/04/02 08:14:57;;;;;;;4.60;3.37;;;;;;;2.38;100.00;95062.06;5025656;28;20232;-88
2022/04/02 08:17:24;;;;;;;4.40;3.60;;;;;;;2.43;100.00;95072.88;5049374;28;20335;-88
2022/04/02 08:19:54;;;;;;;6.00;3.40;;;;;;;2.40;100.00;95068.78;5024068;28;20206;-88
2022/04/02 08:22:23;;;;;;;5.13;3.50;;;;;;;2.48;100.00;95068.56;5048559;28;20202;-88
2022/04/02 08:24:50;;;;;;;4.10;3.20;;;;;;;2.52;100.00;95074.28;5030415;28;20221;-88
2022/04/02 08:27:31;;;;;;;3.47;3.17;;;;;;;2.48;100.00;95071.22;5025777;28;20202;-88
2022/04/02 08:30:05;;;;;;;4.10;3.57;;;;;;;2.55;100.00;95071.22;5043250;28;20198;-88
2022/04/02 08:32:42;;;;;;;4.27;3.40;;;;;;;2.57;100.00;95072.63;5038624;28;20213;-89
2022/04/02 08:35:11;;;;;;;3.50;3.10;;;;;;;2.70;100.00;95076.25;5027474;28;20213;-88
2022/04/02 08:37:59;;;;;;;3.80;3.13;;;;;;;2.78;100.00;95074.16;5019548;28;20202;-89
2022/04/02 08:40:47;;;;;;;3.23;2.87;;;;;;;2.85;100.00;95084.78;5023656;28;20206;-88
2022/04/02 08:44:02;;;;;;;3.83;2.90;;;;;;;2.80;100.00;95093.44;5048551;28;20207;-89
2022/04/02 08:46:37;;;;;;;4.53;2.90;;;;;;;2.84;100.00;95091.97;5039047;28;20225;-88
2022/04/02 08:49:23;;;;;;;3.80;3.30;;;;;;;2.83;100.00;95092.19;5061086;28;20232;-89
2022/04/02 08:52:13;;;;;;;3.30;3.00;;;;;;;2.81;100.00;95079.06;5053142;28;20209;-89
2022/04/02 08:54:43;;;;;;;4.50;3.33;;;;;;;2.87;100.00;95104.06;5056375;28;20294;-88
2022/04/02 08:57:28;;;;;;;4.47;3.20;;;;;;;2.87;100.00;95104.06;5026935;28;20239;-88
2022/04/02 09:00:04;;;;;;;3.87;3.10;;;;;;;2.84;100.00;95110.63;5052251;28;20214;-88
2022/04/02 09:02:49;;;;;;;3.17;2.87;;;;;;;2.85;100.00;95106.94;5064358;28;20252;-87
2022/04/02 09:05:35;;;;;;;3.40;3.10;;;;;;;2.85;100.00;95117.59;5038763;28;20213;-88
2022/04/02 09:08:29;;;;;;;3.87;3.33;;;;;;;2.81;100.00;95120.88;5058485;28;20212;-87
2022/04/02 09:11:24;;;;;;;3.40;2.90;;;;;;;3.01;100.00;95134.94;5032912;28;20215;-89
2022/04/02 09:14:11;;;;;;;3.40;3.10;;;;;;;3.11;100.00;95132.66;5031970;28;20199;-87
2022/04/02 09:16:54;;;;;;;3.30;2.90;;;;;;;3.04;100.00;95135.34;5042076;28;20236;-88
2022/04/02 09:19:30;;;;;;;5.87;3.43;;;;;;;3.06;100.00;95135.16;5028857;28;20275;-88
2022/04/02 09:22:06;;;;;;;3.20;2.90;;;;;;;3.08;100.00;95141.06;5047945;28;20263;-88
2022/04/02 09:25:08;;;;;;;3.93;3.50;;;;;;;3.09;100.00;95136.53;5054808;28;20250;-89
2022/04/02 09:28:20;;;;;;;4.60;3.57;;;;;;;3.16;100.00;95140.00;5001961;28;20227;-88
2022/04/02 09:31:23;;;;;;;3.50;3.10;;;;;;;3.21;100.00;95132.19;5011089;28;20220;-88
2022/04/02 09:34:22;;;;;;;3.80;3.20;;;;;;;3.25;100.00;95138.72;5040562;28;20304;-88
2022/04/02 09:37:03;;;;;;;3.77;3.37;;;;;;;3.37;100.00;95143.16;5021009;28;20316;-89
2022/04/02 09:39:47;;;;;;;3.70;3.13;;;;;;;3.47;100.00;95137.34;5049676;28;20249;-88
2022/04/02 09:42:31;;;;;;;3.57;3.23;;;;;;;3.60;99.80;95152.44;5031450;28;20214;-90
2022/04/02 09:45:03;;;;;;;6.53;4.70;;;;;;;3.51;98.68;95143.88;5047681;28;20202;-89
2022/04/02 09:48:09;;;;;;;5.10;3.80;;;;;;;3.53;97.57;95144.50;5057609;28;20230;-90
2022/04/02 09:50:37;;;;;;;3.40;3.00;;;;;;;3.70;98.15;95152.78;5047480;28;20220;-88
2022/04/02 09:53:16;;;;;;;4.47;3.07;;;;;;;3.70;94.21;95153.59;5058403;28;20259;-85
2022/04/02 09:55:51;;;;;;;3.30;3.00;;;;;;;3.70;94.16;95153.59;5010413;28;20233;-88
2022/04/02 09:58:50;;;;;;;4.30;3.63;;;;;;;3.62;94.46;95142.38;5040446;28;20240;-85
2022/04/02 10:01:27;;;;;;;4.13;3.23;;;;;;;3.74;92.49;95149.44;5047667;28;20241;-85
2022/04/02 10:04:00;;;;;;;3.87;3.40;;;;;;;3.73;93.31;95150.50;5051628;28;20202;-86
2022/04/02 10:06:35;;;;;;;3.20;2.90;;;;;;;3.70;95.93;95163.47;5041718;28;20284;-85
2022/04/02 10:09:08;;;;;;;4.43;3.83;;;;;;;3.66;99.05;95160.41;5035761;28;20217;-86
2022/04/02 10:11:40;;;;;;;4.10;3.70;;;;;;;3.59;97.78;95158.81;5046827;28;20298;-85
2022/04/02 10:14:08;;;;;;;3.70;3.30;;;;;;;3.45;95.54;95160.75;5055391;28;20233;-85
2022/04/02 10:16:35;;;;;;;3.40;3.10;;;;;;;3.51;94.49;95159.91;5044982;28;20542;-85
2022/04/02 10:19:08;;;;;;;3.80;3.40;;;;;;;3.51;95.88;95159.91;5055802;28;20268;-85
2022/04/02 10:21:38;;;;;;;3.87;3.43;;;;;;;3.55;94.62;95155.78;5036685;28;20272;-85
2022/04/02 10:24:22;;;;;;;4.53;3.63;;;;;;;3.65;97.48;95166.78;5033901;28;20238;-84
2022/04/02 10:26:53;;;;;;;4.60;4.20;;;;;;;3.67;97.83;95169.22;5033109;28;20206;-87
2022/04/02 10:29:35;;;;;;;5.37;4.17;;;;;;;3.65;96.85;95173.97;5056185;28;20205;-85
2022/04/02 10:32:17;;;;;;;4.77;4.27;;;;;;;3.61;97.38;95170.91;5050642;28;20249;-83
2022/04/02 10:34:55;;;;;;;3.33;3.03;;;;;;;3.51;92.91;95185.75;5057101;28;20301;-85
2022/04/02 10:37:33;;;;;;;3.63;3.33;;;;;;;3.57;93.76;95180.41;5025794;28;20330;-84
2022/04/02 10:40:04;;;;;;;5.40;3.80;;;;;;;3.65;94.62;95184.66;5058680;28;20307;-84
2022/04/02 10:42:35;;;;;;;3.53;3.23;;;;;;;3.61;93.07;95189.59;5039742;28;20209;-85
2022/04/02 10:45:07;;;;;;;4.50;4.10;;;;;;;3.58;94.06;95189.19;4995586;28;20203;-85
2022/04/02 10:47:44;;;;;;;4.33;3.90;;;;;;;3.63;96.34;95195.56;5055348;28;20210;-85
2022/04/02 10:50:12;;;;;;;4.07;3.50;;;;;;;3.63;94.94;95195.56;5059359;28;20897;-86
2022/04/02 10:52:42;;;;;;;3.90;3.50;;;;;;;3.62;94.83;95188.56;5022460;28;20202;-85
2022/04/02 10:55:12;;;;;;;3.60;3.30;;;;;;;3.67;94.22;95187.91;5012864;28;20232;-85
2022/04/02 10:57:39;;;;;;;4.17;3.63;;;;;;;3.61;93.95;95197.59;5024640;28;20229;-85
2022/04/02 11:00:08;;;;;;;4.50;3.93;;;;;;;3.67;93.47;95201.25;5025110;28;20544;-85
2022/04/02 11:02:41;;;;;;;4.23;3.77;;;;;;;3.71;93.50;95203.28;5005396;28;20253;-85
2022/04/02 11:05:11;;;;;;;4.03;3.50;;;;;;;3.67;92.32;95210.09;5019757;28;20269;-85
2022/04/02 11:07:42;;;;;;;3.80;3.40;;;;;;;3.54;92.20;95196.84;5017265;28;20202;-86
2022/04/02 11:10:14;;;;;;;4.87;3.73;;;;;;;3.63;93.69;95211.56;5030043;28;20267;-85
2022/04/02 11:12:44;;;;;;;4.13;3.60;;;;;;;3.59;92.24;95197.00;5035788;28;20210;-85
2022/04/02 11:15:14;;;;;;;3.80;3.50;;;;;;;3.64;94.37;95201.72;5025982;28;20213;-85
2022/04/02 11:17:43;;;;;;;3.87;3.50;;;;;;;3.71;94.07;95197.97;5042291;28;20221;-86
2022/04/02 11:20:13;;;;;;;4.30;3.90;;;;;;;3.79;95.17;95192.34;5022296;28;20214;-85
2022/04/02 11:23:05;;;;;;;4.53;3.90;;;;;;;3.78;93.78;95204.06;5035442;28;20210;-85
2022/04/02 11:25:36;;;;;;;3.83;3.47;;;;;;;3.87;95.35;95201.13;5020432;28;20313;-86
2022/04/02 11:28:12;;;;;;;4.00;3.27;;;;;;;3.92;94.73;95193.28;5035543;28;20202;-84
2022/04/02 11:30:42;;;;;;;5.13;3.30;;;;;;;3.93;94.27;95203.75;5025609;28;20216;-85
2022/04/02 11:33:10;;;;;;;4.60;3.67;;;;;;;4.00;95.00;95191.16;5021273;28;20209;-85
2022/04/02 11:35:39;;;;;;;4.53;3.80;;;;;;;3.78;95.08;95193.38;5023937;28;20210;-86
2022/04/02 11:38:30;;;;;;;3.57;3.20;;;;;;;3.89;93.32;95199.06;5041489;28;20233;-85
2022/04/02 11:41:04;;;;;;;3.70;3.13;;;;;;;3.88;93.49;95205.44;5043047;28;20201;-85
2022/04/02 11:43:33;;;;;;;4.40;3.23;;;;;;;3.84;91.71;95213.06;5063110;28;20291;-84
2022/04/02 11:46:02;;;;;;;3.13;2.83;;;;;;;3.76;91.80;95218.66;5028653;28;20203;-84
2022/04/02 11:48:32;;;;;;;3.23;2.87;;;;;;;3.74;91.35;95218.88;5058712;28;20218;-83
2022/04/02 11:51:14;;;;;;;3.80;3.30;;;;;;;3.75;91.67;95220.50;5062783;28;20194;-86
2022/04/02 11:53:41;;;;;;;3.53;3.23;;;;;;;3.66;92.06;95218.31;5063523;28;20213;-85
2022/04/02 11:56:31;;;;;;;3.63;3.30;;;;;;;3.68;91.61;95230.41;5028671;28;20201;-84
2022/04/02 11:59:00;;;;;;;3.60;3.10;;;;;;;3.60;92.73;95232.50;5058994;28;20264;-85
2022/04/02 12:01:27;;;;;;;2.83;2.63;;;;;;;3.61;92.15;95239.50;5032548;28;20242;-85